sensor_id;sensor_type;location;lat;lon;timestamp;P1;durP1;ratioP1;P2;durP2;ratioP2
2111;SDS011;1062;52.538;13.400;2024-03-23T00:53:38;13.33;;;4.17;;
2111;SDS011;1062;52.538;13.400;2024-03-23T00:56:03;9.83;;;3.10;;
2111;SDS011;1062;52.538;13.400;2024-03-23T00:58:29;6.90;;;2.53;;
2111;SDS011;1062;52.538;13.400;2024-03-23T01:00:55;6.90;;;3.30;;
2111;SDS011;1062;52.538;13.400;2024-03-23T01:03:21;9.70;;;3.30;;
2111;SDS011;1062;52.538;13.400;2024-03-23T01:05:46;10.00;;;3.17;;
2111;SDS011;1062;52.538;13.400;2024-03-23T01:08:13;9.70;;;3.30;;
2111;SDS011;1062;52.538;13.400;2024-03-23T01:10:39;7.97;;;3.30;;
2111;SDS011;1062;52.538;13.400;2024-03-23T01:13:05;11.17;;;3.80;;
2111;SDS011;1062;52.538;13.400;2024-03-23T01:15:31;14.53;;;4.30;;
2111;SDS011;1062;52.538;13.400;2024-03-23T01:17:56;14.63;;;4.07;;
2111;SDS011;1062;52.538;13.400;2024-03-23T01:20:22;12.17;;;3.10;;
2111;SDS011;1062;52.538;13.400;2024-03-23T01:22:48;7.67;;;2.70;;
2111;SDS011;1062;52.538;13.400;2024-03-23T01:25:13;7.40;;;3.27;;
2111;SDS011;1062;52.538;13.400;2024-03-23T01:27:39;16.33;;;5.20;;
2111;SDS011;1062;52.538;13.400;2024-03-23T01:30:04;14.80;;;4.60;;
2111;SDS011;1062;52.538;13.400;2024-03-23T01:32:31;8.80;;;3.33;;
2111;SDS011;1062;52.538;13.400;2024-03-23T01:34:57;20.43;;;3.77;;
2111;SDS011;1062;52.538;13.400;2024-03-23T01:37:22;9.77;;;3.83;;
2111;SDS011;1062;52.538;13.400;2024-03-23T01:39:48;7.40;;;3.40;;
2111;SDS011;1062;52.538;13.400;2024-03-23T01:42:14;12.50;;;3.37;;
2111;SDS011;1062;52.538;13.400;2024-03-23T01:44:39;12.90;;;4.10;;
2111;SDS011;1062;52.538;13.400;2024-03-23T01:47:06;13.07;;;4.43;;
2111;SDS011;1062;52.538;13.400;2024-03-23T01:49:32;11.83;;;4.03;;
2111;SDS011;1062;52.538;13.400;2024-03-23T01:51:58;13.43;;;3.50;;
2111;SDS011;1062;52.538;13.400;2024-03-23T01:54:24;10.53;;;3.77;;
2111;SDS011;1062;52.538;13.400;2024-03-23T01:56:50;13.43;;;5.20;;
2111;SDS011;1062;52.538;13.400;2024-03-23T01:59:16;9.03;;;3.50;;
2111;SDS011;1062;52.538;13.400;2024-03-23T02:01:41;8.73;;;2.90;;
2111;SDS011;1062;52.538;13.400;2024-03-23T02:04:07;11.47;;;4.53;;
2111;SDS011;1062;52.538;13.400;2024-03-23T02:06:34;13.23;;;4.10;;
2111;SDS011;1062;52.538;13.400;2024-03-23T02:09:00;10.60;;;3.83;;
2111;SDS011;1062;52.538;13.400;2024-03-23T02:11:26;18.07;;;4.00;;
2111;SDS011;1062;52.538;13.400;2024-03-23T02:13:51;10.00;;;3.77;;
2111;SDS011;1062;52.538;13.400;2024-03-23T02:16:17;11.23;;;4.87;;
2111;SDS011;1062;52.538;13.400;2024-03-23T02:18:42;16.03;;;4.90;;
2111;SDS011;1062;52.538;13.400;2024-03-23T02:21:08;24.73;;;4.27;;
2111;SDS011;1062;52.538;13.400;2024-03-23T02:23:34;11.73;;;3.60;;
2111;SDS011;1062;52.538;13.400;2024-03-23T02:25:59;17.63;;;4.97;;
2111;SDS011;1062;52.538;13.400;2024-03-23T02:28:25;16.03;;;4.30;;
2111;SDS011;1062;52.538;13.400;2024-03-23T02:30:51;9.00;;;3.27;;
2111;SDS011;1062;52.538;13.400;2024-03-23T02:33:17;11.63;;;3.70;;
2111;SDS011;1062;52.538;13.400;2024-03-23T02:35:45;24.93;;;5.60;;
2111;SDS011;1062;52.538;13.400;2024-03-23T02:38:12;10.03;;;2.97;;
2111;SDS011;1062;52.538;13.400;2024-03-23T02:40:37;12.00;;;3.63;;
2111;SDS011;1062;52.538;13.400;2024-03-23T02:43:03;14.30;;;3.13;;
2111;SDS011;1062;52.538;13.400;2024-03-23T02:45:29;11.70;;;3.77;;
2111;SDS011;1062;52.538;13.400;2024-03-23T02:47:55;11.93;;;4.00;;
2111;SDS011;1062;52.538;13.400;2024-03-23T02:50:21;13.87;;;4.20;;
2111;SDS011;1062;52.538;13.400;2024-03-23T02:52:47;10.00;;;3.90;;
2111;SDS011;1062;52.538;13.400;2024-03-23T02:55:13;10.60;;;4.20;;
2111;SDS011;1062;52.538;13.400;2024-03-23T02:57:39;15.97;;;3.27;;
2111;SDS011;1062;52.538;13.400;2024-03-23T03:00:05;17.20;;;3.80;;
2111;SDS011;1062;52.538;13.400;2024-03-23T03:02:32;11.90;;;4.00;;
2111;SDS011;1062;52.538;13.400;2024-03-23T03:04:58;11.80;;;4.13;;
2111;SDS011;1062;52.538;13.400;2024-03-23T03:07:23;20.50;;;4.40;;
2111;SDS011;1062;52.538;13.400;2024-03-23T03:09:49;14.60;;;5.23;;
2111;SDS011;1062;52.538;13.400;2024-03-23T03:12:14;14.00;;;5.50;;
2111;SDS011;1062;52.538;13.400;2024-03-23T03:14:40;19.30;;;5.60;;
2111;SDS011;1062;52.538;13.400;2024-03-23T03:17:06;12.97;;;3.90;;
2111;SDS011;1062;52.538;13.400;2024-03-23T03:19:31;9.13;;;4.07;;
2111;SDS011;1062;52.538;13.400;2024-03-23T03:21:57;9.50;;;5.83;;
2111;SDS011;1062;52.538;13.400;2024-03-23T03:24:23;11.27;;;4.47;;
2111;SDS011;1062;52.538;13.400;2024-03-23T03:26:48;14.53;;;5.40;;
2111;SDS011;1062;52.538;13.400;2024-03-23T03:29:14;14.60;;;5.60;;
2111;SDS011;1062;52.538;13.400;2024-03-23T03:31:40;13.10;;;5.70;;
2111;SDS011;1062;52.538;13.400;2024-03-23T03:34:06;18.17;;;5.10;;
2111;SDS011;1062;52.538;13.400;2024-03-23T03:36:31;10.43;;;4.30;;
2111;SDS011;1062;52.538;13.400;2024-03-23T03:38:57;7.20;;;3.73;;
2111;SDS011;1062;52.538;13.400;2024-03-23T03:41:22;12.80;;;5.37;;
2111;SDS011;1062;52.538;13.400;2024-03-23T03:43:48;9.27;;;4.40;;
2111;SDS011;1062;52.538;13.400;2024-03-23T03:46:14;10.73;;;4.13;;
2111;SDS011;1062;52.538;13.400;2024-03-23T03:48:39;7.80;;;4.37;;
2111;SDS011;1062;52.538;13.400;2024-03-23T03:51:05;9.73;;;3.30;;
2111;SDS011;1062;52.538;13.400;2024-03-23T03:53:30;11.80;;;3.67;;
2111;SDS011;1062;52.538;13.400;2024-03-23T03:55:56;19.27;;;5.17;;
2111;SDS011;1062;52.538;13.400;2024-03-23T03:58:26;17.13;;;4.60;;
2111;SDS011;1062;52.538;13.400;2024-03-23T04:00:51;7.93;;;3.20;;
2111;SDS011;1062;52.538;13.400;2024-03-23T04:03:17;9.50;;;2.80;;
2111;SDS011;1062;52.538;13.400;2024-03-23T04:05:42;11.80;;;4.23;;
2111;SDS011;1062;52.538;13.400;2024-03-23T04:08:08;5.40;;;2.90;;
2111;SDS011;1062;52.538;13.400;2024-03-23T04:10:33;8.93;;;3.10;;
2111;SDS011;1062;52.538;13.400;2024-03-23T04:12:59;9.63;;;2.87;;
2111;SDS011;1062;52.538;13.400;2024-03-23T04:15:25;6.40;;;2.53;;
2111;SDS011;1062;52.538;13.400;2024-03-23T04:17:51;5.40;;;2.20;;
2111;SDS011;1062;52.538;13.400;2024-03-23T04:20:17;9.33;;;2.87;;
2111;SDS011;1062;52.538;13.400;2024-03-23T04:22:43;6.47;;;3.07;;
2111;SDS011;1062;52.538;13.400;2024-03-23T04:25:09;8.53;;;3.10;;
2111;SDS011;1062;52.538;13.400;2024-03-23T04:27:38;7.03;;;2.40;;
2111;SDS011;1062;52.538;13.400;2024-03-23T04:30:04;6.33;;;2.30;;
2111;SDS011;1062;52.538;13.400;2024-03-23T04:32:35;3.23;;;1.50;;
2111;SDS011;1062;52.538;13.400;2024-03-23T04:35:01;5.93;;;1.90;;
2111;SDS011;1062;52.538;13.400;2024-03-23T04:37:30;4.73;;;1.70;;
2111;SDS011;1062;52.538;13.400;2024-03-23T04:39:57;11.17;;;2.27;;
2111;SDS011;1062;52.538;13.400;2024-03-23T04:42:24;12.00;;;2.80;;
2111;SDS011;1062;52.538;13.400;2024-03-23T04:44:49;5.23;;;2.17;;
2111;SDS011;1062;52.538;13.400;2024-03-23T04:47:15;5.07;;;1.87;;
2111;SDS011;1062;52.538;13.400;2024-03-23T04:49:41;7.83;;;1.97;;
2111;SDS011;1062;52.538;13.400;2024-03-23T04:52:07;6.07;;;2.70;;
2111;SDS011;1062;52.538;13.400;2024-03-23T04:54:32;10.23;;;2.90;;
2111;SDS011;1062;52.538;13.400;2024-03-23T04:56:58;5.60;;;1.80;;
2111;SDS011;1062;52.538;13.400;2024-03-23T04:59:24;3.37;;;1.93;;
2111;SDS011;1062;52.538;13.400;2024-03-23T05:01:50;5.00;;;2.10;;
2111;SDS011;1062;52.538;13.400;2024-03-23T05:04:15;3.27;;;2.17;;
2111;SDS011;1062;52.538;13.400;2024-03-23T05:06:41;4.20;;;1.57;;
2111;SDS011;1062;52.538;13.400;2024-03-23T05:09:06;4.60;;;1.60;;
2111;SDS011;1062;52.538;13.400;2024-03-23T05:11:33;6.03;;;1.80;;
2111;SDS011;1062;52.538;13.400;2024-03-23T05:13:59;3.40;;;1.90;;
2111;SDS011;1062;52.538;13.400;2024-03-23T05:16:25;3.63;;;1.90;;
2111;SDS011;1062;52.538;13.400;2024-03-23T05:18:51;3.70;;;1.90;;
2111;SDS011;1062;52.538;13.400;2024-03-23T05:21:17;8.10;;;3.30;;
2111;SDS011;1062;52.538;13.400;2024-03-23T05:23:42;9.73;;;1.40;;
2111;SDS011;1062;52.538;13.400;2024-03-23T05:26:08;4.70;;;2.23;;
2111;SDS011;1062;52.538;13.400;2024-03-23T05:28:34;3.80;;;2.43;;
2111;SDS011;1062;52.538;13.400;2024-03-23T05:31:00;4.87;;;1.50;;
2111;SDS011;1062;52.538;13.400;2024-03-23T05:33:26;5.27;;;2.93;;
2111;SDS011;1062;52.538;13.400;2024-03-23T05:35:58;6.40;;;2.27;;
2111;SDS011;1062;52.538;13.400;2024-03-23T05:38:24;4.60;;;2.03;;
2111;SDS011;1062;52.538;13.400;2024-03-23T05:40:56;4.43;;;2.70;;
2111;SDS011;1062;52.538;13.400;2024-03-23T05:43:23;8.13;;;2.83;;
2111;SDS011;1062;52.538;13.400;2024-03-23T05:45:58;5.50;;;3.20;;
2111;SDS011;1062;52.538;13.400;2024-03-23T05:48:25;5.60;;;3.30;;
2111;SDS011;1062;52.538;13.400;2024-03-23T05:50:51;6.20;;;2.90;;
2111;SDS011;1062;52.538;13.400;2024-03-23T05:53:18;8.70;;;3.27;;
2111;SDS011;1062;52.538;13.400;2024-03-23T05:55:46;7.23;;;3.53;;
2111;SDS011;1062;52.538;13.400;2024-03-23T05:58:15;7.33;;;3.27;;
2111;SDS011;1062;52.538;13.400;2024-03-23T06:00:42;5.03;;;3.07;;
2111;SDS011;1062;52.538;13.400;2024-03-23T06:03:08;3.30;;;2.87;;
2111;SDS011;1062;52.538;13.400;2024-03-23T06:05:35;7.03;;;3.73;;
2111;SDS011;1062;52.538;13.400;2024-03-23T06:08:01;9.27;;;3.70;;
2111;SDS011;1062;52.538;13.400;2024-03-23T06:10:27;9.43;;;4.60;;
2111;SDS011;1062;52.538;13.400;2024-03-23T06:12:53;8.13;;;3.60;;
2111;SDS011;1062;52.538;13.400;2024-03-23T06:15:19;11.47;;;3.33;;
2111;SDS011;1062;52.538;13.400;2024-03-23T06:17:44;4.40;;;2.53;;
2111;SDS011;1062;52.538;13.400;2024-03-23T06:20:10;5.53;;;2.57;;
2111;SDS011;1062;52.538;13.400;2024-03-23T06:22:36;4.50;;;2.90;;
2111;SDS011;1062;52.538;13.400;2024-03-23T06:25:02;6.80;;;2.97;;
2111;SDS011;1062;52.538;13.400;2024-03-23T06:27:28;6.30;;;2.60;;
2111;SDS011;1062;52.538;13.400;2024-03-23T06:29:54;6.57;;;2.40;;
2111;SDS011;1062;52.538;13.400;2024-03-23T06:32:20;5.70;;;2.73;;
2111;SDS011;1062;52.538;13.400;2024-03-23T06:34:45;9.43;;;2.50;;
2111;SDS011;1062;52.538;13.400;2024-03-23T06:37:11;4.83;;;1.83;;
2111;SDS011;1062;52.538;13.400;2024-03-23T06:39:37;7.33;;;2.23;;
2111;SDS011;1062;52.538;13.400;2024-03-23T06:42:03;4.63;;;2.10;;
2111;SDS011;1062;52.538;13.400;2024-03-23T06:44:29;8.80;;;3.70;;
2111;SDS011;1062;52.538;13.400;2024-03-23T06:46:55;9.97;;;2.70;;
2111;SDS011;1062;52.538;13.400;2024-03-23T06:49:21;5.83;;;2.87;;
2111;SDS011;1062;52.538;13.400;2024-03-23T06:51:47;5.20;;;2.40;;
2111;SDS011;1062;52.538;13.400;2024-03-23T06:54:13;7.33;;;2.20;;
2111;SDS011;1062;52.538;13.400;2024-03-23T06:56:39;7.20;;;2.30;;
2111;SDS011;1062;52.538;13.400;2024-03-23T06:59:05;5.53;;;2.03;;
2111;SDS011;1062;52.538;13.400;2024-03-23T07:01:31;5.80;;;2.57;;
2111;SDS011;1062;52.538;13.400;2024-03-23T07:03:56;3.23;;;1.70;;
2111;SDS011;1062;52.538;13.400;2024-03-23T07:06:22;4.77;;;1.90;;
2111;SDS011;1062;52.538;13.400;2024-03-23T07:08:48;5.37;;;2.00;;
2111;SDS011;1062;52.538;13.400;2024-03-23T07:11:23;6.20;;;2.60;;
2111;SDS011;1062;52.538;13.400;2024-03-23T07:13:49;4.10;;;2.40;;
2111;SDS011;1062;52.538;13.400;2024-03-23T07:16:16;4.43;;;2.70;;
2111;SDS011;1062;52.538;13.400;2024-03-23T07:18:42;3.43;;;2.10;;
2111;SDS011;1062;52.538;13.400;2024-03-23T07:21:07;5.60;;;3.33;;
2111;SDS011;1062;52.538;13.400;2024-03-23T07:23:33;3.67;;;2.23;;
2111;SDS011;1062;52.538;13.400;2024-03-23T07:26:02;3.73;;;2.70;;
2111;SDS011;1062;52.538;13.400;2024-03-23T07:28:30;6.77;;;2.70;;
2111;SDS011;1062;52.538;13.400;2024-03-23T07:33:35;4.67;;;2.07;;
2111;SDS011;1062;52.538;13.400;2024-03-23T07:36:02;7.17;;;2.53;;
2111;SDS011;1062;52.538;13.400;2024-03-23T07:38:28;5.47;;;2.93;;
2111;SDS011;1062;52.538;13.400;2024-03-23T07:41:07;6.50;;;2.97;;
2111;SDS011;1062;52.538;13.400;2024-03-23T07:43:33;5.40;;;2.73;;
2111;SDS011;1062;52.538;13.400;2024-03-23T07:46:00;6.80;;;3.00;;
2111;SDS011;1062;52.538;13.400;2024-03-23T07:48:26;5.87;;;2.17;;
2111;SDS011;1062;52.538;13.400;2024-03-23T07:51:16;4.77;;;2.93;;
2111;SDS011;1062;52.538;13.400;2024-03-23T07:53:46;4.17;;;3.57;;
2111;SDS011;1062;52.538;13.400;2024-03-23T07:56:13;7.73;;;2.83;;
2111;SDS011;1062;52.538;13.400;2024-03-23T07:58:40;5.97;;;3.13;;
2111;SDS011;1062;52.538;13.400;2024-03-23T08:01:11;4.20;;;2.10;;
2111;SDS011;1062;52.538;13.400;2024-03-23T08:03:40;6.13;;;2.40;;
2111;SDS011;1062;52.538;13.400;2024-03-23T08:06:27;3.10;;;1.90;;
2111;SDS011;1062;52.538;13.400;2024-03-23T08:08:53;6.83;;;2.53;;
2111;SDS011;1062;52.538;13.400;2024-03-23T08:11:26;3.10;;;2.00;;
2111;SDS011;1062;52.538;13.400;2024-03-23T08:13:52;5.63;;;3.33;;
2111;SDS011;1062;52.538;13.400;2024-03-23T08:16:17;3.70;;;3.03;;
2111;SDS011;1062;52.538;13.400;2024-03-23T08:18:43;3.67;;;1.87;;
2111;SDS011;1062;52.538;13.400;2024-03-23T08:21:09;3.77;;;2.57;;
2111;SDS011;1062;52.538;13.400;2024-03-23T08:23:34;4.27;;;2.27;;
2111;SDS011;1062;52.538;13.400;2024-03-23T08:26:03;3.03;;;1.70;;
2111;SDS011;1062;52.538;13.400;2024-03-23T08:28:30;4.30;;;2.40;;
2111;SDS011;1062;52.538;13.400;2024-03-23T08:30:56;3.60;;;1.87;;
2111;SDS011;1062;52.538;13.400;2024-03-23T08:33:22;4.97;;;1.80;;
2111;SDS011;1062;52.538;13.400;2024-03-23T08:36:00;6.43;;;2.63;;
2111;SDS011;1062;52.538;13.400;2024-03-23T08:38:34;3.00;;;2.30;;
2111;SDS011;1062;52.538;13.400;2024-03-23T08:41:01;5.50;;;2.30;;
2111;SDS011;1062;52.538;13.400;2024-03-23T08:43:28;3.53;;;1.93;;
2111;SDS011;1062;52.538;13.400;2024-03-23T08:46:02;9.10;;;2.13;;
2111;SDS011;1062;52.538;13.400;2024-03-23T08:48:32;3.50;;;2.00;;
2111;SDS011;1062;52.538;13.400;2024-03-23T08:51:02;6.60;;;2.30;;
2111;SDS011;1062;52.538;13.400;2024-03-23T08:53:28;8.50;;;2.53;;
2111;SDS011;1062;52.538;13.400;2024-03-23T08:55:55;7.70;;;3.17;;
2111;SDS011;1062;52.538;13.400;2024-03-23T08:58:23;4.90;;;2.50;;
2111;SDS011;1062;52.538;13.400;2024-03-23T09:00:49;4.13;;;2.00;;
2111;SDS011;1062;52.538;13.400;2024-03-23T09:03:16;5.70;;;2.33;;
2111;SDS011;1062;52.538;13.400;2024-03-23T09:05:41;5.33;;;2.20;;
2111;SDS011;1062;52.538;13.400;2024-03-23T09:08:07;6.30;;;3.20;;
2111;SDS011;1062;52.538;13.400;2024-03-23T09:10:39;5.33;;;2.13;;
2111;SDS011;1062;52.538;13.400;2024-03-23T09:13:05;7.13;;;2.30;;
2111;SDS011;1062;52.538;13.400;2024-03-23T09:15:32;5.70;;;1.70;;
2111;SDS011;1062;52.538;13.400;2024-03-23T09:18:02;3.90;;;1.73;;
2111;SDS011;1062;52.538;13.400;2024-03-23T09:20:28;4.00;;;1.70;;
2111;SDS011;1062;52.538;13.400;2024-03-23T09:22:57;3.70;;;2.33;;
2111;SDS011;1062;52.538;13.400;2024-03-23T09:25:23;2.90;;;1.90;;
2111;SDS011;1062;52.538;13.400;2024-03-23T09:27:48;3.97;;;2.20;;
2111;SDS011;1062;52.538;13.400;2024-03-23T09:30:15;3.97;;;1.80;;
2111;SDS011;1062;52.538;13.400;2024-03-23T09:32:43;5.27;;;2.10;;
2111;SDS011;1062;52.538;13.400;2024-03-23T09:35:10;2.67;;;1.73;;
2111;SDS011;1062;52.538;13.400;2024-03-23T09:37:36;4.20;;;1.67;;
2111;SDS011;1062;52.538;13.400;2024-03-23T09:40:02;8.50;;;2.27;;
2111;SDS011;1062;52.538;13.400;2024-03-23T09:42:28;2.20;;;1.73;;
2111;SDS011;1062;52.538;13.400;2024-03-23T09:44:54;2.40;;;1.80;;
2111;SDS011;1062;52.538;13.400;2024-03-23T09:47:23;3.77;;;2.13;;
2111;SDS011;1062;52.538;13.400;2024-03-23T09:49:50;8.00;;;2.13;;
2111;SDS011;1062;52.538;13.400;2024-03-23T09:52:15;6.87;;;2.60;;
2111;SDS011;1062;52.538;13.400;2024-03-23T09:54:41;5.90;;;1.80;;
2111;SDS011;1062;52.538;13.400;2024-03-23T09:57:07;7.03;;;2.97;;
2111;SDS011;1062;52.538;13.400;2024-03-23T09:59:33;4.63;;;1.87;;
2111;SDS011;1062;52.538;13.400;2024-03-23T10:01:59;5.40;;;2.40;;
2111;SDS011;1062;52.538;13.400;2024-03-23T10:04:36;3.60;;;2.00;;
2111;SDS011;1062;52.538;13.400;2024-03-23T10:07:14;5.63;;;3.43;;
2111;SDS011;1062;52.538;13.400;2024-03-23T10:09:42;4.33;;;1.87;;
2111;SDS011;1062;52.538;13.400;2024-03-23T10:12:11;6.00;;;2.20;;
2111;SDS011;1062;52.538;13.400;2024-03-23T10:14:38;3.60;;;1.90;;
2111;SDS011;1062;52.538;13.400;2024-03-23T10:17:15;5.90;;;2.20;;
2111;SDS011;1062;52.538;13.400;2024-03-23T10:19:48;5.77;;;2.07;;
2111;SDS011;1062;52.538;13.400;2024-03-23T10:22:17;6.50;;;1.87;;
2111;SDS011;1062;52.538;13.400;2024-03-23T10:24:44;5.50;;;2.30;;
2111;SDS011;1062;52.538;13.400;2024-03-23T10:27:13;9.23;;;2.17;;
2111;SDS011;1062;52.538;13.400;2024-03-23T10:29:41;4.57;;;2.20;;
2111;SDS011;1062;52.538;13.400;2024-03-23T10:32:07;4.50;;;2.20;;
2111;SDS011;1062;52.538;13.400;2024-03-23T10:34:34;6.83;;;2.13;;
2111;SDS011;1062;52.538;13.400;2024-03-23T10:37:01;5.00;;;2.13;;
2111;SDS011;1062;52.538;13.400;2024-03-23T10:39:32;3.33;;;2.33;;
2111;SDS011;1062;52.538;13.400;2024-03-23T10:42:02;5.87;;;1.60;;
2111;SDS011;1062;52.538;13.400;2024-03-23T10:44:28;2.80;;;1.90;;
2111;SDS011;1062;52.538;13.400;2024-03-23T10:46:56;2.70;;;1.80;;
2111;SDS011;1062;52.538;13.400;2024-03-23T10:49:26;7.47;;;2.47;;
2111;SDS011;1062;52.538;13.400;2024-03-23T10:52:05;4.70;;;2.20;;
2111;SDS011;1062;52.538;13.400;2024-03-23T10:54:32;5.87;;;2.70;;
2111;SDS011;1062;52.538;13.400;2024-03-23T10:57:33;8.07;;;2.73;;
2111;SDS011;1062;52.538;13.400;2024-03-23T10:59:56;4.67;;;2.40;;
2111;SDS011;1062;52.538;13.400;2024-03-23T11:02:22;4.97;;;1.83;;
2111;SDS011;1062;52.538;13.400;2024-03-23T11:04:48;5.53;;;3.87;;
2111;SDS011;1062;52.538;13.400;2024-03-23T11:07:32;6.50;;;2.43;;
2111;SDS011;1062;52.538;13.400;2024-03-23T11:09:58;6.10;;;2.90;;
2111;SDS011;1062;52.538;13.400;2024-03-23T11:15:00;6.23;;;2.20;;
2111;SDS011;1062;52.538;13.400;2024-03-23T11:17:30;7.73;;;2.83;;
2111;SDS011;1062;52.538;13.400;2024-03-23T11:19:59;9.37;;;2.43;;
2111;SDS011;1062;52.538;13.400;2024-03-23T11:25:19;6.00;;;2.27;;
2111;SDS011;1062;52.538;13.400;2024-03-23T11:27:53;10.70;;;2.60;;
2111;SDS011;1062;52.538;13.400;2024-03-23T11:30:49;7.17;;;2.40;;
2111;SDS011;1062;52.538;13.400;2024-03-23T11:33:14;9.37;;;2.00;;
2111;SDS011;1062;52.538;13.400;2024-03-23T11:35:41;3.43;;;2.43;;
2111;SDS011;1062;52.538;13.400;2024-03-23T11:40:34;4.70;;;2.70;;
2111;SDS011;1062;52.538;13.400;2024-03-23T11:43:12;2.70;;;1.93;;
2111;SDS011;1062;52.538;13.400;2024-03-23T11:45:43;6.97;;;3.07;;
2111;SDS011;1062;52.538;13.400;2024-03-23T11:50:45;3.20;;;2.37;;
2111;SDS011;1062;52.538;13.400;2024-03-23T11:53:16;5.00;;;2.50;;
2111;SDS011;1062;52.538;13.400;2024-03-23T11:55:52;6.20;;;3.00;;
2111;SDS011;1062;52.538;13.400;2024-03-23T11:58:21;4.67;;;2.40;;
2111;SDS011;1062;52.538;13.400;2024-03-23T12:03:29;7.83;;;2.60;;
2111;SDS011;1062;52.538;13.400;2024-03-23T12:05:56;9.80;;;2.90;;
2111;SDS011;1062;52.538;13.400;2024-03-23T12:13:21;4.90;;;1.80;;
2111;SDS011;1062;52.538;13.400;2024-03-23T12:15:47;11.70;;;2.50;;
2111;SDS011;1062;52.538;13.400;2024-03-23T12:18:14;7.20;;;3.47;;
2111;SDS011;1062;52.538;13.400;2024-03-23T12:20:40;5.67;;;1.87;;
2111;SDS011;1062;52.538;13.400;2024-03-23T12:23:12;9.13;;;2.67;;
2111;SDS011;1062;52.538;13.400;2024-03-23T12:25:38;5.50;;;2.00;;
2111;SDS011;1062;52.538;13.400;2024-03-23T12:28:05;6.70;;;2.97;;
2111;SDS011;1062;52.538;13.400;2024-03-23T12:30:34;7.03;;;2.83;;
2111;SDS011;1062;52.538;13.400;2024-03-23T12:33:02;3.57;;;2.40;;
2111;SDS011;1062;52.538;13.400;2024-03-23T12:35:28;4.13;;;2.70;;
2111;SDS011;1062;52.538;13.400;2024-03-23T12:37:54;2.50;;;2.10;;
2111;SDS011;1062;52.538;13.400;2024-03-23T12:40:19;10.90;;;3.03;;
2111;SDS011;1062;52.538;13.400;2024-03-23T12:42:45;7.07;;;2.70;;
2111;SDS011;1062;52.538;13.400;2024-03-23T12:45:10;6.63;;;2.60;;
2111;SDS011;1062;52.538;13.400;2024-03-23T12:47:36;7.80;;;3.10;;
2111;SDS011;1062;52.538;13.400;2024-03-23T12:50:02;7.80;;;1.77;;
2111;SDS011;1062;52.538;13.400;2024-03-23T12:52:28;5.33;;;2.40;;
2111;SDS011;1062;52.538;13.400;2024-03-23T12:54:55;6.23;;;1.70;;
2111;SDS011;1062;52.538;13.400;2024-03-23T12:57:22;4.33;;;1.67;;
2111;SDS011;1062;52.538;13.400;2024-03-23T12:59:51;6.03;;;1.43;;
2111;SDS011;1062;52.538;13.400;2024-03-23T13:02:18;2.70;;;1.40;;
2111;SDS011;1062;52.538;13.400;2024-03-23T13:04:45;7.27;;;1.53;;
2111;SDS011;1062;52.538;13.400;2024-03-23T13:07:11;4.33;;;2.03;;
2111;SDS011;1062;52.538;13.400;2024-03-23T13:09:37;3.50;;;1.80;;
2111;SDS011;1062;52.538;13.400;2024-03-23T13:12:03;6.23;;;2.50;;
2111;SDS011;1062;52.538;13.400;2024-03-23T13:14:29;5.27;;;2.07;;
2111;SDS011;1062;52.538;13.400;2024-03-23T13:16:54;3.20;;;2.33;;
2111;SDS011;1062;52.538;13.400;2024-03-23T13:19:20;3.90;;;2.17;;
2111;SDS011;1062;52.538;13.400;2024-03-23T13:21:48;3.60;;;1.63;;
2111;SDS011;1062;52.538;13.400;2024-03-23T13:24:14;8.70;;;2.50;;
2111;SDS011;1062;52.538;13.400;2024-03-23T13:26:39;7.53;;;1.90;;
2111;SDS011;1062;52.538;13.400;2024-03-23T13:29:05;7.07;;;2.47;;
2111;SDS011;1062;52.538;13.400;2024-03-23T13:31:30;2.77;;;2.00;;
2111;SDS011;1062;52.538;13.400;2024-03-23T13:33:56;3.60;;;2.03;;
2111;SDS011;1062;52.538;13.400;2024-03-23T13:36:22;4.70;;;2.30;;
2111;SDS011;1062;52.538;13.400;2024-03-23T13:38:47;3.43;;;2.10;;
2111;SDS011;1062;52.538;13.400;2024-03-23T13:41:13;4.77;;;2.60;;
2111;SDS011;1062;52.538;13.400;2024-03-23T13:43:39;4.20;;;2.23;;
2111;SDS011;1062;52.538;13.400;2024-03-23T13:46:05;6.77;;;2.63;;
2111;SDS011;1062;52.538;13.400;2024-03-23T13:48:31;6.10;;;3.10;;
2111;SDS011;1062;52.538;13.400;2024-03-23T13:50:59;5.67;;;2.47;;
2111;SDS011;1062;52.538;13.400;2024-03-23T13:53:26;5.13;;;2.90;;
2111;SDS011;1062;52.538;13.400;2024-03-23T13:55:51;4.17;;;3.00;;
2111;SDS011;1062;52.538;13.400;2024-03-23T13:58:18;6.80;;;3.30;;
2111;SDS011;1062;52.538;13.400;2024-03-23T14:00:43;5.87;;;2.87;;
2111;SDS011;1062;52.538;13.400;2024-03-23T14:03:09;6.27;;;3.23;;
2111;SDS011;1062;52.538;13.400;2024-03-23T14:05:36;10.70;;;3.90;;
2111;SDS011;1062;52.538;13.400;2024-03-23T14:08:04;12.57;;;4.33;;
2111;SDS011;1062;52.538;13.400;2024-03-23T14:10:30;9.60;;;4.43;;
2111;SDS011;1062;52.538;13.400;2024-03-23T14:12:55;5.10;;;2.87;;
2111;SDS011;1062;52.538;13.400;2024-03-23T14:15:21;4.57;;;2.93;;
2111;SDS011;1062;52.538;13.400;2024-03-23T14:17:47;4.70;;;2.80;;
2111;SDS011;1062;52.538;13.400;2024-03-23T14:20:12;7.20;;;2.93;;
2111;SDS011;1062;52.538;13.400;2024-03-23T14:22:38;8.17;;;3.63;;
2111;SDS011;1062;52.538;13.400;2024-03-23T14:25:06;10.83;;;3.10;;
2111;SDS011;1062;52.538;13.400;2024-03-23T14:27:32;10.83;;;3.93;;
2111;SDS011;1062;52.538;13.400;2024-03-23T14:29:57;5.73;;;3.30;;
2111;SDS011;1062;52.538;13.400;2024-03-23T14:32:23;3.63;;;2.10;;
2111;SDS011;1062;52.538;13.400;2024-03-23T14:34:48;9.73;;;4.13;;
2111;SDS011;1062;52.538;13.400;2024-03-23T14:37:14;9.53;;;3.87;;
2111;SDS011;1062;52.538;13.400;2024-03-23T14:39:42;4.40;;;2.80;;
2111;SDS011;1062;52.538;13.400;2024-03-23T14:42:10;7.00;;;2.93;;
2111;SDS011;1062;52.538;13.400;2024-03-23T14:44:35;6.67;;;3.10;;
2111;SDS011;1062;52.538;13.400;2024-03-23T14:47:01;10.63;;;4.13;;
2111;SDS011;1062;52.538;13.400;2024-03-23T14:49:27;10.33;;;3.47;;
2111;SDS011;1062;52.538;13.400;2024-03-23T14:51:52;3.43;;;1.77;;
2111;SDS011;1062;52.538;13.400;2024-03-23T14:54:18;3.10;;;1.40;;
2111;SDS011;1062;52.538;13.400;2024-03-23T14:56:43;3.90;;;2.03;;
2111;SDS011;1062;52.538;13.400;2024-03-23T14:59:09;2.50;;;2.00;;
2111;SDS011;1062;52.538;13.400;2024-03-23T15:01:35;4.60;;;2.57;;
2111;SDS011;1062;52.538;13.400;2024-03-23T15:04:00;4.00;;;2.60;;
2111;SDS011;1062;52.538;13.400;2024-03-23T15:06:26;9.10;;;2.90;;
2111;SDS011;1062;52.538;13.400;2024-03-23T15:08:51;3.57;;;2.60;;
2111;SDS011;1062;52.538;13.400;2024-03-23T15:11:17;9.33;;;2.97;;
2111;SDS011;1062;52.538;13.400;2024-03-23T15:13:44;4.37;;;2.50;;
2111;SDS011;1062;52.538;13.400;2024-03-23T15:16:11;2.80;;;2.13;;
2111;SDS011;1062;52.538;13.400;2024-03-23T15:18:45;4.57;;;2.70;;
2111;SDS011;1062;52.538;13.400;2024-03-23T15:21:11;4.17;;;2.83;;
2111;SDS011;1062;52.538;13.400;2024-03-23T15:23:37;3.07;;;2.57;;
2111;SDS011;1062;52.538;13.400;2024-03-23T15:26:03;5.10;;;2.43;;
2111;SDS011;1062;52.538;13.400;2024-03-23T15:28:31;2.30;;;2.10;;
2111;SDS011;1062;52.538;13.400;2024-03-23T15:31:15;4.50;;;2.40;;
2111;SDS011;1062;52.538;13.400;2024-03-23T15:33:41;4.90;;;2.90;;
2111;SDS011;1062;52.538;13.400;2024-03-23T15:36:06;5.67;;;3.50;;
2111;SDS011;1062;52.538;13.400;2024-03-23T15:38:32;18.13;;;4.30;;
2111;SDS011;1062;52.538;13.400;2024-03-23T15:40:58;5.13;;;3.07;;
2111;SDS011;1062;52.538;13.400;2024-03-23T15:43:24;4.17;;;2.40;;
2111;SDS011;1062;52.538;13.400;2024-03-23T15:45:59;4.70;;;3.10;;
2111;SDS011;1062;52.538;13.400;2024-03-23T15:48:27;8.27;;;2.50;;
2111;SDS011;1062;52.538;13.400;2024-03-23T15:50:54;5.40;;;2.47;;
2111;SDS011;1062;52.538;13.400;2024-03-23T15:53:21;7.53;;;2.57;;
2111;SDS011;1062;52.538;13.400;2024-03-23T15:55:57;6.90;;;3.03;;
2111;SDS011;1062;52.538;13.400;2024-03-23T15:58:24;13.80;;;2.37;;
2111;SDS011;1062;52.538;13.400;2024-03-23T16:00:57;4.80;;;2.80;;
2111;SDS011;1062;52.538;13.400;2024-03-23T16:03:30;4.33;;;2.63;;
2111;SDS011;1062;52.538;13.400;2024-03-23T16:05:58;5.20;;;2.97;;
2111;SDS011;1062;52.538;13.400;2024-03-23T16:08:25;10.70;;;3.87;;
2111;SDS011;1062;52.538;13.400;2024-03-23T16:10:51;6.80;;;3.00;;